sensor_id;sensor_type;location;lat;lon;timestamp;P1;durP1;ratioP1;P2;durP2;ratioP2
39256;SDS011;67272;48.066;11.038;2023-04-15T00:00:36;2.67;;;2.30;;
39256;SDS011;67272;48.066;11.038;2023-04-15T00:03:03;3.00;;;2.23;;
39256;SDS011;67272;48.066;11.038;2023-04-15T00:05:41;3.43;;;2.30;;
39256;SDS011;67272;48.066;11.038;2023-04-15T00:08:07;3.87;;;2.20;;
39256;SDS011;67272;48.066;11.038;2023-04-15T00:10:34;3.63;;;2.60;;
39256;SDS011;67272;48.066;11.038;2023-04-15T00:13:00;4.00;;;2.50;;
39256;SDS011;67272;48.066;11.038;2023-04-15T00:15:28;4.67;;;2.10;;
39256;SDS011;67272;48.066;11.038;2023-04-15T00:17:57;3.07;;;2.53;;
39256;SDS011;67272;48.066;11.038;2023-04-15T00:20:24;2.93;;;2.17;;
39256;SDS011;67272;48.066;11.038;2023-04-15T00:22:50;2.27;;;2.03;;
39256;SDS011;67272;48.066;11.038;2023-04-15T00:25:20;3.30;;;2.27;;
39256;SDS011;67272;48.066;11.038;2023-04-15T00:27:47;5.73;;;2.50;;
39256;SDS011;67272;48.066;11.038;2023-04-15T00:30:14;2.60;;;2.27;;
39256;SDS011;67272;48.066;11.038;2023-04-15T00:32:41;3.37;;;2.20;;
39256;SDS011;67272;48.066;11.038;2023-04-15T00:35:07;2.10;;;1.83;;
39256;SDS011;67272;48.066;11.038;2023-04-15T00:37:33;3.20;;;2.20;;
39256;SDS011;67272;48.066;11.038;2023-04-15T00:40:01;2.50;;;1.90;;
39256;SDS011;67272;48.066;11.038;2023-04-15T00:42:33;4.07;;;2.27;;
39256;SDS011;67272;48.066;11.038;2023-04-15T00:45:00;2.93;;;2.63;;
39256;SDS011;67272;48.066;11.038;2023-04-15T00:47:26;2.67;;;1.90;;
39256;SDS011;67272;48.066;11.038;2023-04-15T00:49:55;2.30;;;1.97;;
39256;SDS011;67272;48.066;11.038;2023-04-15T00:52:25;3.23;;;1.97;;
39256;SDS011;67272;48.066;11.038;2023-04-15T00:54:51;4.17;;;2.17;;
39256;SDS011;67272;48.066;11.038;2023-04-15T00:57:22;2.33;;;2.13;;
39256;SDS011;67272;48.066;11.038;2023-04-15T00:59:48;3.13;;;2.10;;
39256;SDS011;67272;48.066;11.038;2023-04-15T01:02:20;3.73;;;2.27;;
39256;SDS011;67272;48.066;11.038;2023-04-15T01:04:52;3.90;;;2.40;;
39256;SDS011;67272;48.066;11.038;2023-04-15T01:07:19;3.03;;;2.20;;
39256;SDS011;67272;48.066;11.038;2023-04-15T01:09:45;2.27;;;1.87;;
39256;SDS011;67272;48.066;11.038;2023-04-15T01:12:18;3.03;;;1.83;;
39256;SDS011;67272;48.066;11.038;2023-04-15T01:14:45;4.70;;;2.13;;
39256;SDS011;67272;48.066;11.038;2023-04-15T01:17:14;2.47;;;1.90;;
39256;SDS011;67272;48.066;11.038;2023-04-15T01:19:43;5.17;;;2.00;;
39256;SDS011;67272;48.066;11.038;2023-04-15T01:22:10;3.27;;;2.10;;
39256;SDS011;67272;48.066;11.038;2023-04-15T01:24:37;3.47;;;2.23;;
39256;SDS011;67272;48.066;11.038;2023-04-15T01:27:07;3.67;;;2.07;;
39256;SDS011;67272;48.066;11.038;2023-04-15T01:29:36;2.50;;;2.07;;
39256;SDS011;67272;48.066;11.038;2023-04-15T01:32:04;3.30;;;2.30;;
39256;SDS011;67272;48.066;11.038;2023-04-15T01:34:31;2.83;;;2.00;;
39256;SDS011;67272;48.066;11.038;2023-04-15T01:36:57;3.10;;;2.20;;
39256;SDS011;67272;48.066;11.038;2023-04-15T01:39:26;4.67;;;2.20;;
39256;SDS011;67272;48.066;11.038;2023-04-15T01:41:55;2.80;;;2.20;;
39256;SDS011;67272;48.066;11.038;2023-04-15T01:44:22;1.67;;;1.57;;
39256;SDS011;67272;48.066;11.038;2023-04-15T01:46:49;3.07;;;1.80;;
39256;SDS011;67272;48.066;11.038;2023-04-15T01:49:15;2.60;;;2.20;;
39256;SDS011;67272;48.066;11.038;2023-04-15T01:51:45;2.13;;;1.97;;
39256;SDS011;67272;48.066;11.038;2023-04-15T01:54:12;2.20;;;1.73;;
39256;SDS011;67272;48.066;11.038;2023-04-15T01:56:38;3.43;;;1.90;;
39256;SDS011;67272;48.066;11.038;2023-04-15T01:59:05;2.20;;;1.83;;
39256;SDS011;67272;48.066;11.038;2023-04-15T02:01:34;3.63;;;1.90;;
39256;SDS011;67272;48.066;11.038;2023-04-15T02:04:01;3.43;;;2.00;;
39256;SDS011;67272;48.066;11.038;2023-04-15T02:06:29;2.20;;;1.90;;
39256;SDS011;67272;48.066;11.038;2023-04-15T02:08:57;3.07;;;1.70;;
39256;SDS011;67272;48.066;11.038;2023-04-15T02:11:23;2.20;;;1.83;;
39256;SDS011;67272;48.066;11.038;2023-04-15T02:13:51;2.20;;;2.00;;
39256;SDS011;67272;48.066;11.038;2023-04-15T02:16:17;1.90;;;1.70;;
39256;SDS011;67272;48.066;11.038;2023-04-15T02:18:44;2.77;;;1.83;;
39256;SDS011;67272;48.066;11.038;2023-04-15T02:21:11;4.33;;;2.00;;
39256;SDS011;67272;48.066;11.038;2023-04-15T02:23:37;1.83;;;1.73;;
39256;SDS011;67272;48.066;11.038;2023-04-15T02:26:06;4.03;;;1.90;;
39256;SDS011;67272;48.066;11.038;2023-04-15T02:28:32;3.40;;;1.90;;
39256;SDS011;67272;48.066;11.038;2023-04-15T02:30:58;3.03;;;2.07;;
39256;SDS011;67272;48.066;11.038;2023-04-15T02:33:25;2.47;;;2.00;;
39256;SDS011;67272;48.066;11.038;2023-04-15T02:35:52;1.70;;;1.60;;
39256;SDS011;67272;48.066;11.038;2023-04-15T02:38:18;4.23;;;1.77;;
39256;SDS011;67272;48.066;11.038;2023-04-15T02:40:47;2.95;;;1.67;;
39256;SDS011;67272;48.066;11.038;2023-04-15T02:43:14;1.87;;;1.70;;
39256;SDS011;67272;48.066;11.038;2023-04-15T02:45:42;2.77;;;1.60;;
39256;SDS011;67272;48.066;11.038;2023-04-15T02:48:08;3.00;;;1.47;;
39256;SDS011;67272;48.066;11.038;2023-04-15T02:50:34;2.70;;;1.70;;
39256;SDS011;67272;48.066;11.038;2023-04-15T02:53:03;2.73;;;1.43;;
39256;SDS011;67272;48.066;11.038;2023-04-15T02:55:33;4.17;;;1.63;;
39256;SDS011;67272;48.066;11.038;2023-04-15T02:57:59;1.80;;;1.40;;
39256;SDS011;67272;48.066;11.038;2023-04-15T03:00:29;2.00;;;1.60;;
39256;SDS011;67272;48.066;11.038;2023-04-15T03:03:02;1.90;;;1.60;;
39256;SDS011;67272;48.066;11.038;2023-04-15T03:05:29;3.20;;;1.63;;
39256;SDS011;67272;48.066;11.038;2023-04-15T03:07:56;2.73;;;1.70;;
39256;SDS011;67272;48.066;11.038;2023-04-15T03:10:25;2.60;;;1.60;;
39256;SDS011;67272;48.066;11.038;2023-04-15T03:12:52;2.80;;;1.40;;
39256;SDS011;67272;48.066;11.038;2023-04-15T03:15:20;2.87;;;1.70;;
39256;SDS011;67272;48.066;11.038;2023-04-15T03:17:56;3.23;;;1.70;;
39256;SDS011;67272;48.066;11.038;2023-04-15T03:20:22;2.73;;;1.30;;
39256;SDS011;67272;48.066;11.038;2023-04-15T03:22:49;2.80;;;1.70;;
39256;SDS011;67272;48.066;11.038;2023-04-15T03:25:17;2.80;;;1.63;;
39256;SDS011;67272;48.066;11.038;2023-04-15T03:27:49;1.60;;;1.30;;
39256;SDS011;67272;48.066;11.038;2023-04-15T03:30:28;2.30;;;1.43;;
39256;SDS011;67272;48.066;11.038;2023-04-15T03:32:54;1.80;;;1.40;;
39256;SDS011;67272;48.066;11.038;2023-04-15T03:35:21;2.73;;;1.63;;
39256;SDS011;67272;48.066;11.038;2023-04-15T03:37:47;2.25;;;1.60;;
39256;SDS011;67272;48.066;11.038;2023-04-15T03:40:13;3.07;;;1.40;;
39256;SDS011;67272;48.066;11.038;2023-04-15T03:42:40;2.03;;;1.80;;
39256;SDS011;67272;48.066;11.038;2023-04-15T03:45:12;2.83;;;1.57;;
39256;SDS011;67272;48.066;11.038;2023-04-15T03:47:45;1.47;;;1.37;;
39256;SDS011;67272;48.066;11.038;2023-04-15T03:50:14;2.10;;;1.30;;
39256;SDS011;67272;48.066;11.038;2023-04-15T03:52:43;1.40;;;1.30;;
39256;SDS011;67272;48.066;11.038;2023-04-15T03:55:10;1.83;;;1.27;;
39256;SDS011;67272;48.066;11.038;2023-04-15T03:57:37;1.70;;;1.23;;
39256;SDS011;67272;48.066;11.038;2023-04-15T04:00:04;2.30;;;1.50;;
39256;SDS011;67272;48.066;11.038;2023-04-15T04:02:37;1.40;;;1.27;;
39256;SDS011;67272;48.066;11.038;2023-04-15T04:05:03;1.60;;;1.50;;
39256;SDS011;67272;48.066;11.038;2023-04-15T04:07:29;2.33;;;1.30;;
39256;SDS011;67272;48.066;11.038;2023-04-15T04:09:58;2.60;;;1.30;;
39256;SDS011;67272;48.066;11.038;2023-04-15T04:12:25;2.27;;;1.40;;
39256;SDS011;67272;48.066;11.038;2023-04-15T04:14:54;1.73;;;1.30;;
39256;SDS011;67272;48.066;11.038;2023-04-15T04:17:21;2.60;;;1.40;;
39256;SDS011;67272;48.066;11.038;2023-04-15T04:19:47;2.40;;;1.50;;
39256;SDS011;67272;48.066;11.038;2023-04-15T04:22:17;2.00;;;1.30;;
39256;SDS011;67272;48.066;11.038;2023-04-15T04:24:43;1.60;;;1.40;;
39256;SDS011;67272;48.066;11.038;2023-04-15T04:27:09;3.13;;;1.60;;
39256;SDS011;67272;48.066;11.038;2023-04-15T04:29:39;3.80;;;2.83;;
39256;SDS011;67272;48.066;11.038;2023-04-15T04:32:05;1.73;;;1.17;;
39256;SDS011;67272;48.066;11.038;2023-04-15T04:34:31;6.93;;;4.60;;
39256;SDS011;67272;48.066;11.038;2023-04-15T04:37:00;1.60;;;1.37;;
39256;SDS011;67272;48.066;11.038;2023-04-15T04:39:27;5.17;;;3.10;;
39256;SDS011;67272;48.066;11.038;2023-04-15T04:41:53;1.97;;;1.30;;
39256;SDS011;67272;48.066;11.038;2023-04-15T04:44:20;1.50;;;1.40;;
39256;SDS011;67272;48.066;11.038;2023-04-15T04:46:49;2.20;;;1.30;;
39256;SDS011;67272;48.066;11.038;2023-04-15T04:49:15;1.90;;;1.40;;
39256;SDS011;67272;48.066;11.038;2023-04-15T04:51:41;2.83;;;1.63;;
39256;SDS011;67272;48.066;11.038;2023-04-15T04:54:07;2.60;;;1.50;;
39256;SDS011;67272;48.066;11.038;2023-04-15T04:56:37;2.43;;;1.20;;
39256;SDS011;67272;48.066;11.038;2023-04-15T04:59:04;1.23;;;1.07;;
39256;SDS011;67272;48.066;11.038;2023-04-15T05:01:34;1.73;;;1.20;;
39256;SDS011;67272;48.066;11.038;2023-04-15T05:04:00;3.07;;;1.33;;
39256;SDS011;67272;48.066;11.038;2023-04-15T05:06:29;1.67;;;1.53;;
39256;SDS011;67272;48.066;11.038;2023-04-15T05:08:55;2.00;;;1.30;;
39256;SDS011;67272;48.066;11.038;2023-04-15T05:11:22;1.60;;;1.10;;
39256;SDS011;67272;48.066;11.038;2023-04-15T05:13:48;1.17;;;1.07;;
39256;SDS011;67272;48.066;11.038;2023-04-15T05:16:14;1.10;;;1.00;;
39256;SDS011;67272;48.066;11.038;2023-04-15T05:18:41;1.43;;;1.23;;
39256;SDS011;67272;48.066;11.038;2023-04-15T05:21:08;2.53;;;1.40;;
39256;SDS011;67272;48.066;11.038;2023-04-15T05:23:37;2.13;;;1.13;;
39256;SDS011;67272;48.066;11.038;2023-04-15T05:26:04;1.27;;;1.10;;
39256;SDS011;67272;48.066;11.038;2023-04-15T05:28:30;1.27;;;1.00;;
39256;SDS011;67272;48.066;11.038;2023-04-15T05:30:57;1.00;;;0.90;;
39256;SDS011;67272;48.066;11.038;2023-04-15T05:33:23;1.43;;;1.00;;
39256;SDS011;67272;48.066;11.038;2023-04-15T05:35:58;2.43;;;1.10;;
39256;SDS011;67272;48.066;11.038;2023-04-15T05:38:28;3.80;;;1.07;;
39256;SDS011;67272;48.066;11.038;2023-04-15T05:40:54;2.03;;;1.30;;
39256;SDS011;67272;48.066;11.038;2023-04-15T05:43:21;5.53;;;1.40;;
39256;SDS011;67272;48.066;11.038;2023-04-15T05:45:47;1.13;;;1.03;;
39256;SDS011;67272;48.066;11.038;2023-04-15T05:48:14;1.20;;;1.00;;
39256;SDS011;67272;48.066;11.038;2023-04-15T05:50:43;1.37;;;1.00;;
39256;SDS011;67272;48.066;11.038;2023-04-15T05:53:10;2.73;;;1.23;;
39256;SDS011;67272;48.066;11.038;2023-04-15T05:55:36;2.27;;;1.30;;
39256;SDS011;67272;48.066;11.038;2023-04-15T05:58:02;2.30;;;1.20;;
39256;SDS011;67272;48.066;11.038;2023-04-15T06:00:29;1.67;;;1.07;;
39256;SDS011;67272;48.066;11.038;2023-04-15T06:02:55;1.13;;;0.93;;
39256;SDS011;67272;48.066;11.038;2023-04-15T06:05:23;1.50;;;1.00;;
39256;SDS011;67272;48.066;11.038;2023-04-15T06:07:49;1.90;;;1.20;;
39256;SDS011;67272;48.066;11.038;2023-04-15T06:10:15;3.43;;;1.30;;
39256;SDS011;67272;48.066;11.038;2023-04-15T06:12:41;4.13;;;1.70;;
39256;SDS011;67272;48.066;11.038;2023-04-15T06:15:08;3.53;;;1.90;;
39256;SDS011;67272;48.066;11.038;2023-04-15T06:17:34;2.00;;;1.27;;
39256;SDS011;67272;48.066;11.038;2023-04-15T06:20:01;1.17;;;0.90;;
39256;SDS011;67272;48.066;11.038;2023-04-15T06:22:28;2.33;;;1.03;;
39256;SDS011;67272;48.066;11.038;2023-04-15T06:24:57;1.87;;;1.17;;
39256;SDS011;67272;48.066;11.038;2023-04-15T06:27:24;1.43;;;1.27;;
39256;SDS011;67272;48.066;11.038;2023-04-15T06:29:50;1.30;;;0.90;;
39256;SDS011;67272;48.066;11.038;2023-04-15T06:32:19;1.63;;;1.52;;
39256;SDS011;67272;48.066;11.038;2023-04-15T06:34:45;1.40;;;1.30;;
39256;SDS011;67272;48.066;11.038;2023-04-15T06:37:11;2.77;;;1.67;;
39256;SDS011;67272;48.066;11.038;2023-04-15T06:39:40;2.33;;;1.30;;
39256;SDS011;67272;48.066;11.038;2023-04-15T06:42:07;3.43;;;1.37;;
39256;SDS011;67272;48.066;11.038;2023-04-15T06:44:34;2.00;;;1.20;;
39256;SDS011;67272;48.066;11.038;2023-04-15T06:47:01;2.20;;;1.30;;
39256;SDS011;67272;48.066;11.038;2023-04-15T06:49:27;1.73;;;1.10;;
39256;SDS011;67272;48.066;11.038;2023-04-15T06:51:54;1.47;;;1.37;;
39256;SDS011;67272;48.066;11.038;2023-04-15T06:54:20;1.30;;;1.10;;
39256;SDS011;67272;48.066;11.038;2023-04-15T06:56:46;1.20;;;1.10;;
39256;SDS011;67272;48.066;11.038;2023-04-15T06:59:13;2.53;;;1.33;;
39256;SDS011;67272;48.066;11.038;2023-04-15T07:01:39;1.87;;;1.13;;
39256;SDS011;67272;48.066;11.038;2023-04-15T07:04:06;1.90;;;1.10;;
39256;SDS011;67272;48.066;11.038;2023-04-15T07:06:32;2.97;;;1.37;;
39256;SDS011;67272;48.066;11.038;2023-04-15T07:08:59;1.53;;;1.10;;
39256;SDS011;67272;48.066;11.038;2023-04-15T07:11:27;1.47;;;1.37;;
39256;SDS011;67272;48.066;11.038;2023-04-15T07:13:53;2.13;;;1.33;;
39256;SDS011;67272;48.066;11.038;2023-04-15T07:16:19;2.20;;;1.30;;
39256;SDS011;67272;48.066;11.038;2023-04-15T07:18:45;1.20;;;1.10;;
39256;SDS011;67272;48.066;11.038;2023-04-15T07:21:12;2.97;;;1.43;;
39256;SDS011;67272;48.066;11.038;2023-04-15T07:23:38;1.97;;;1.57;;
39256;SDS011;67272;48.066;11.038;2023-04-15T07:26:04;2.47;;;1.20;;
39256;SDS011;67272;48.066;11.038;2023-04-15T07:28:30;2.83;;;1.30;;
39256;SDS011;67272;48.066;11.038;2023-04-15T07:30:56;2.07;;;1.20;;
39256;SDS011;67272;48.066;11.038;2023-04-15T07:33:22;1.90;;;1.30;;
39256;SDS011;67272;48.066;11.038;2023-04-15T07:35:48;1.47;;;1.37;;
39256;SDS011;67272;48.066;11.038;2023-04-15T07:38:14;2.55;;;1.48;;
39256;SDS011;67272;48.066;11.038;2023-04-15T07:40:41;1.70;;;1.27;;
39256;SDS011;67272;48.066;11.038;2023-04-15T07:43:07;1.20;;;1.10;;
39256;SDS011;67272;48.066;11.038;2023-04-15T07:45:33;1.37;;;1.27;;
39256;SDS011;67272;48.066;11.038;2023-04-15T07:48:00;2.17;;;1.47;;
39256;SDS011;67272;48.066;11.038;2023-04-15T07:50:27;3.10;;;1.30;;
39256;SDS011;67272;48.066;11.038;2023-04-15T07:52:53;1.83;;;1.40;;
39256;SDS011;67272;48.066;11.038;2023-04-15T07:55:20;1.97;;;1.43;;
39256;SDS011;67272;48.066;11.038;2023-04-15T07:57:47;2.13;;;1.40;;
39256;SDS011;67272;48.066;11.038;2023-04-15T08:00:14;1.97;;;1.50;;
39256;SDS011;67272;48.066;11.038;2023-04-15T08:02:40;2.47;;;1.57;;
39256;SDS011;67272;48.066;11.038;2023-04-15T08:05:07;2.00;;;1.60;;
39256;SDS011;67272;48.066;11.038;2023-04-15T08:07:35;1.57;;;1.30;;
39256;SDS011;67272;48.066;11.038;2023-04-15T08:10:01;1.97;;;1.60;;
39256;SDS011;67272;48.066;11.038;2023-04-15T08:12:27;1.50;;;1.40;;
39256;SDS011;67272;48.066;11.038;2023-04-15T08:14:53;1.73;;;1.60;;
39256;SDS011;67272;48.066;11.038;2023-04-15T08:17:20;1.60;;;1.50;;
39256;SDS011;67272;48.066;11.038;2023-04-15T08:19:46;3.13;;;2.13;;
39256;SDS011;67272;48.066;11.038;2023-04-15T08:22:13;1.80;;;1.45;;
39256;SDS011;67272;48.066;11.038;2023-04-15T08:24:39;2.20;;;1.30;;
39256;SDS011;67272;48.066;11.038;2023-04-15T08:27:06;2.03;;;1.65;;
39256;SDS011;67272;48.066;11.038;2023-04-15T08:29:33;2.63;;;1.85;;
39256;SDS011;67272;48.066;11.038;2023-04-15T08:31:59;3.15;;;1.85;;
39256;SDS011;67272;48.066;11.038;2023-04-15T08:34:26;2.65;;;1.52;;
39256;SDS011;67272;48.066;11.038;2023-04-15T08:36:52;2.95;;;1.77;;
39256;SDS011;67272;48.066;11.038;2023-04-15T08:39:18;2.22;;;1.80;;
39256;SDS011;67272;48.066;11.038;2023-04-15T08:41:46;3.10;;;1.98;;
39256;SDS011;67272;48.066;11.038;2023-04-15T08:44:18;2.42;;;1.70;;
39256;SDS011;67272;48.066;11.038;2023-04-15T08:46:45;1.80;;;1.70;;
39256;SDS011;67272;48.066;11.038;2023-04-15T08:49:12;1.90;;;1.75;;
39256;SDS011;67272;48.066;11.038;2023-04-15T08:51:47;2.08;;;1.88;;
39256;SDS011;67272;48.066;11.038;2023-04-15T08:54:17;1.77;;;1.65;;
39256;SDS011;67272;48.066;11.038;2023-04-15T08:56:43;2.22;;;1.48;;
39256;SDS011;67272;48.066;11.038;2023-04-15T08:59:13;1.83;;;1.70;;
39256;SDS011;67272;48.066;11.038;2023-04-15T09:01:41;3.17;;;1.80;;
39256;SDS011;67272;48.066;11.038;2023-04-15T09:04:07;1.80;;;1.50;;
39256;SDS011;67272;48.066;11.038;2023-04-15T09:06:36;3.40;;;1.80;;
39256;SDS011;67272;48.066;11.038;2023-04-15T09:09:04;2.47;;;1.83;;
39256;SDS011;67272;48.066;11.038;2023-04-15T09:11:31;2.93;;;1.77;;
39256;SDS011;67272;48.066;11.038;2023-04-15T09:13:57;1.83;;;1.60;;
39256;SDS011;67272;48.066;11.038;2023-04-15T09:16:23;2.10;;;1.63;;
39256;SDS011;67272;48.066;11.038;2023-04-15T09:18:53;2.22;;;2.05;;
39256;SDS011;67272;48.066;11.038;2023-04-15T09:21:19;1.65;;;1.55;;
39256;SDS011;67272;48.066;11.038;2023-04-15T09:23:54;2.20;;;1.83;;
39256;SDS011;67272;48.066;11.038;2023-04-15T09:26:35;2.05;;;1.85;;
39256;SDS011;67272;48.066;11.038;2023-04-15T09:29:05;3.50;;;1.98;;
39256;SDS011;67272;48.066;11.038;2023-04-15T09:31:32;2.70;;;2.10;;
39256;SDS011;67272;48.066;11.038;2023-04-15T09:33:59;2.85;;;2.35;;
39256;SDS011;67272;48.066;11.038;2023-04-15T09:36:25;3.05;;;1.90;;
39256;SDS011;67272;48.066;11.038;2023-04-15T09:39:03;2.93;;;2.00;;
39256;SDS011;67272;48.066;11.038;2023-04-15T09:41:29;2.03;;;1.83;;
39256;SDS011;67272;48.066;11.038;2023-04-15T09:43:56;2.20;;;1.95;;
39256;SDS011;67272;48.066;11.038;2023-04-15T09:46:39;2.70;;;2.10;;
39256;SDS011;67272;48.066;11.038;2023-04-15T09:49:07;2.60;;;2.40;;
39256;SDS011;67272;48.066;11.038;2023-04-15T09:51:36;3.58;;;2.20;;
39256;SDS011;67272;48.066;11.038;2023-04-15T09:54:03;2.85;;;2.50;;
39256;SDS011;67272;48.066;11.038;2023-04-15T09:56:36;2.70;;;2.50;;
39256;SDS011;67272;48.066;11.038;2023-04-15T09:59:06;3.70;;;2.35;;
39256;SDS011;67272;48.066;11.038;2023-04-15T10:01:33;2.50;;;2.30;;
39256;SDS011;67272;48.066;11.038;2023-04-15T10:04:03;2.15;;;1.88;;
39256;SDS011;67272;48.066;11.038;2023-04-15T10:06:30;2.60;;;2.40;;
39256;SDS011;67272;48.066;11.038;2023-04-15T10:09:03;3.05;;;2.75;;
39256;SDS011;67272;48.066;11.038;2023-04-15T10:11:31;3.00;;;2.50;;
39256;SDS011;67272;48.066;11.038;2023-04-15T10:13:57;3.17;;;2.88;;
39256;SDS011;67272;48.066;11.038;2023-04-15T10:16:25;3.05;;;2.50;;
39256;SDS011;67272;48.066;11.038;2023-04-15T10:18:56;2.35;;;2.15;;
39256;SDS011;67272;48.066;11.038;2023-04-15T10:21:23;3.70;;;2.88;;
39256;SDS011;67272;48.066;11.038;2023-04-15T10:23:49;2.15;;;2.05;;
39256;SDS011;67272;48.066;11.038;2023-04-15T10:26:16;2.72;;;2.53;;
39256;SDS011;67272;48.066;11.038;2023-04-15T10:28:43;2.65;;;2.30;;
39256;SDS011;67272;48.066;11.038;2023-04-15T10:31:11;2.72;;;2.50;;
39256;SDS011;67272;48.066;11.038;2023-04-15T10:33:39;2.72;;;2.50;;
39256;SDS011;67272;48.066;11.038;2023-04-15T10:36:05;2.55;;;2.20;;
39256;SDS011;67272;48.066;11.038;2023-04-15T10:38:39;3.38;;;2.42;;
39256;SDS011;67272;48.066;11.038;2023-04-15T10:41:22;2.63;;;2.42;;
39256;SDS011;67272;48.066;11.038;2023-04-15T10:46:20;2.97;;;2.67;;
39256;SDS011;67272;48.066;11.038;2023-04-15T10:48:50;3.80;;;2.97;;
39256;SDS011;67272;48.066;11.038;2023-04-15T10:51:35;2.42;;;2.22;;
39256;SDS011;67272;48.066;11.038;2023-04-15T10:54:15;2.78;;;2.33;;
39256;SDS011;67272;48.066;11.038;2023-04-15T10:56:45;2.83;;;2.50;;
39256;SDS011;67272;48.066;11.038;2023-04-15T10:59:16;3.35;;;3.03;;
39256;SDS011;67272;48.066;11.038;2023-04-15T11:01:55;3.00;;;2.70;;
39256;SDS011;67272;48.066;11.038;2023-04-15T11:07:09;3.45;;;3.03;;
39256;SDS011;67272;48.066;11.038;2023-04-15T11:09:36;3.78;;;2.70;;
39256;SDS011;67272;48.066;11.038;2023-04-15T11:12:08;3.88;;;3.30;;
39256;SDS011;67272;48.066;11.038;2023-04-15T11:14:39;3.55;;;3.25;;
39256;SDS011;67272;48.066;11.038;2023-04-15T11:17:07;4.40;;;3.05;;
39256;SDS011;67272;48.066;11.038;2023-04-15T11:19:37;4.38;;;2.55;;
39256;SDS011;67272;48.066;11.038;2023-04-15T11:22:09;2.97;;;2.58;;
39256;SDS011;67272;48.066;11.038;2023-04-15T11:24:45;3.95;;;2.78;;
39256;SDS011;67272;48.066;11.038;2023-04-15T11:27:23;3.38;;;3.08;;
39256;SDS011;67272;48.066;11.038;2023-04-15T11:29:50;3.20;;;2.90;;
39256;SDS011;67272;48.066;11.038;2023-04-15T11:32:17;3.03;;;2.72;;
39256;SDS011;67272;48.066;11.038;2023-04-15T11:34:44;3.38;;;3.10;;
39256;SDS011;67272;48.066;11.038;2023-04-15T11:37:11;3.30;;;3.10;;
39256;SDS011;67272;48.066;11.038;2023-04-15T11:39:37;4.13;;;3.72;;
39256;SDS011;67272;48.066;11.038;2023-04-15T11:42:23;3.80;;;3.40;;
39256;SDS011;67272;48.066;11.038;2023-04-15T11:44:49;3.33;;;2.97;;
39256;SDS011;67272;48.066;11.038;2023-04-15T11:47:31;3.42;;;3.10;;
39256;SDS011;67272;48.066;11.038;2023-04-15T11:50:12;3.00;;;2.80;;
39256;SDS011;67272;48.066;11.038;2023-04-15T11:52:39;3.33;;;3.03;;
39256;SDS011;67272;48.066;11.038;2023-04-15T11:55:06;3.50;;;3.17;;
39256;SDS011;67272;48.066;11.038;2023-04-15T11:57:33;3.83;;;3.03;;
39256;SDS011;67272;48.066;11.038;2023-04-15T12:00:15;4.97;;;2.83;;
39256;SDS011;67272;48.066;11.038;2023-04-15T12:02:42;4.03;;;3.13;;
39256;SDS011;67272;48.066;11.038;2023-04-15T12:05:09;4.40;;;3.27;;
39256;SDS011;67272;48.066;11.038;2023-04-15T12:10:23;3.20;;;3.00;;
39256;SDS011;67272;48.066;11.038;2023-04-15T12:12:51;3.50;;;3.20;;
39256;SDS011;67272;48.066;11.038;2023-04-15T12:15:20;3.63;;;3.33;;
39256;SDS011;67272;48.066;11.038;2023-04-15T12:17:48;3.77;;;3.37;;
39256;SDS011;67272;48.066;11.038;2023-04-15T12:20:23;3.30;;;2.50;;
39256;SDS011;67272;48.066;11.038;2023-04-15T12:22:50;3.30;;;3.00;;
39256;SDS011;67272;48.066;11.038;2023-04-15T12:25:17;3.87;;;3.57;;
39256;SDS011;67272;48.066;11.038;2023-04-15T12:27:49;3.40;;;3.10;;
39256;SDS011;67272;48.066;11.038;2023-04-15T12:30:16;3.60;;;3.30;;
39256;SDS011;67272;48.066;11.038;2023-04-15T12:32:42;3.60;;;3.30;;
39256;SDS011;67272;48.066;11.038;2023-04-15T12:35:10;3.37;;;3.07;;
39256;SDS011;67272;48.066;11.038;2023-04-15T12:37:37;3.60;;;2.70;;
39256;SDS011;67272;48.066;11.038;2023-04-15T12:40:03;2.97;;;2.67;;
39256;SDS011;67272;48.066;11.038;2023-04-15T12:42:36;3.67;;;2.90;;
39256;SDS011;67272;48.066;11.038;2023-04-15T12:45:02;2.80;;;2.60;;
39256;SDS011;67272;48.066;11.038;2023-04-15T12:47:35;3.27;;;2.73;;
39256;SDS011;67272;48.066;11.038;2023-04-15T12:50:04;3.23;;;2.40;;
39256;SDS011;67272;48.066;11.038;2023-04-15T12:52:31;2.80;;;2.60;;
39256;SDS011;67272;48.066;11.038;2023-04-15T12:55:00;3.20;;;2.90;;
39256;SDS011;67272;48.066;11.038;2023-04-15T12:57:27;3.43;;;2.80;;
39256;SDS011;67272;48.066;11.038;2023-04-15T12:59:53;3.70;;;2.40;;
39256;SDS011;67272;48.066;11.038;2023-04-15T13:02:22;2.90;;;2.50;;
39256;SDS011;67272;48.066;11.038;2023-04-15T13:04:51;3.00;;;2.80;;
39256;SDS011;67272;48.066;11.038;2023-04-15T13:07:23;3.13;;;2.90;;
39256;SDS011;67272;48.066;11.038;2023-04-15T13:09:49;2.90;;;2.70;;
39256;SDS011;67272;48.066;11.038;2023-04-15T13:12:19;2.87;;;2.20;;
39256;SDS011;67272;48.066;11.038;2023-04-15T13:14:45;2.73;;;2.40;;
39256;SDS011;67272;48.066;11.038;2023-04-15T13:17:12;2.33;;;2.13;;
39256;SDS011;67272;48.066;11.038;2023-04-15T13:19:38;5.87;;;2.60;;
39256;SDS011;67272;48.066;11.038;2023-04-15T13:22:07;2.23;;;2.03;;
39256;SDS011;67272;48.066;11.038;2023-04-15T13:24:37;2.87;;;2.53;;
39256;SDS011;67272;48.066;11.038;2023-04-15T13:27:03;3.10;;;2.67;;
39256;SDS011;67272;48.066;11.038;2023-04-15T13:29:34;2.50;;;2.30;;
39256;SDS011;67272;48.066;11.038;2023-04-15T13:32:06;3.43;;;2.47;;
39256;SDS011;67272;48.066;11.038;2023-04-15T13:34:33;3.70;;;2.80;;
39256;SDS011;67272;48.066;11.038;2023-04-15T13:37:06;2.83;;;2.57;;
39256;SDS011;67272;48.066;11.038;2023-04-15T13:39:32;3.40;;;2.73;;
39256;SDS011;67272;48.066;11.038;2023-04-15T13:41:59;3.27;;;2.97;;
39256;SDS011;67272;48.066;11.038;2023-04-15T13:44:27;4.10;;;3.75;;
39256;SDS011;67272;48.066;11.038;2023-04-15T13:46:59;3.60;;;3.30;;
39256;SDS011;67272;48.066;11.038;2023-04-15T13:49:26;3.28;;;2.97;;
39256;SDS011;67272;48.066;11.038;2023-04-15T13:51:52;3.20;;;2.90;;
39256;SDS011;67272;48.066;11.038;2023-04-15T13:54:21;2.58;;;2.38;;
39256;SDS011;67272;48.066;11.038;2023-04-15T13:56:47;3.03;;;2.78;;
39256;SDS011;67272;48.066;11.038;2023-04-15T13:59:14;2.87;;;2.40;;
39256;SDS011;67272;48.066;11.038;2023-04-15T14:01:43;2.58;;;2.38;;
39256;SDS011;67272;48.066;11.038;2023-04-15T14:04:10;3.57;;;2.60;;
39256;SDS011;67272;48.066;11.038;2023-04-15T14:06:36;3.40;;;2.60;;
39256;SDS011;67272;48.066;11.038;2023-04-15T14:09:02;2.43;;;2.30;;
39256;SDS011;67272;48.066;11.038;2023-04-15T14:11:29;2.72;;;2.40;;
39256;SDS011;67272;48.066;11.038;2023-04-15T14:14:01;2.78;;;2.40;;
39256;SDS011;67272;48.066;11.038;2023-04-15T14:16:27;2.80;;;2.40;;
39256;SDS011;67272;48.066;11.038;2023-04-15T14:18:53;2.90;;;2.47;;
39256;SDS011;67272;48.066;11.038;2023-04-15T14:21:19;3.10;;;2.80;;
39256;SDS011;67272;48.066;11.038;2023-04-15T14:23:46;2.27;;;2.10;;
39256;SDS011;67272;48.066;11.038;2023-04-15T14:26:12;3.43;;;2.63;;
39256;SDS011;67272;48.066;11.038;2023-04-15T14:28:39;3.03;;;2.57;;
39256;SDS011;67272;48.066;11.038;2023-04-15T14:31:05;2.80;;;2.60;;
39256;SDS011;67272;48.066;11.038;2023-04-15T14:33:31;4.23;;;2.70;;
39256;SDS011;67272;48.066;11.038;2023-04-15T14:36:07;2.13;;;1.90;;
39256;SDS011;67272;48.066;11.038;2023-04-15T14:38:34;2.80;;;2.60;;
39256;SDS011;67272;48.066;11.038;2023-04-15T14:41:07;3.23;;;2.40;;
39256;SDS011;67272;48.066;11.038;2023-04-15T14:43:34;4.93;;;2.97;;
39256;SDS011;67272;48.066;11.038;2023-04-15T14:46:00;2.80;;;2.60;;